sensor_id;sensor_type;location;lat;lon;timestamp;P1;durP1;ratioP1;P2;durP2;ratioP2
313;SDS011;143;51.634;7.112;2022-08-19T00:01:32;10.23;;;7.00;;
313;SDS011;143;51.634;7.112;2022-08-19T00:04:00;8.70;;;6.70;;
313;SDS011;143;51.634;7.112;2022-08-19T00:06:29;7.77;;;6.20;;
313;SDS011;143;51.634;7.112;2022-08-19T00:08:55;9.77;;;6.20;;
313;SDS011;143;51.634;7.112;2022-08-19T00:11:23;12.63;;;6.20;;
313;SDS011;143;51.634;7.112;2022-08-19T00:13:50;7.00;;;5.63;;
313;SDS011;143;51.634;7.112;2022-08-19T00:16:16;7.27;;;5.87;;
313;SDS011;143;51.634;7.112;2022-08-19T00:18:46;8.70;;;6.53;;
313;SDS011;143;51.634;7.112;2022-08-19T00:21:12;9.53;;;6.70;;
313;SDS011;143;51.634;7.112;2022-08-19T00:23:38;13.37;;;6.50;;
313;SDS011;143;51.634;7.112;2022-08-19T00:26:04;8.17;;;6.40;;
313;SDS011;143;51.634;7.112;2022-08-19T00:28:30;7.80;;;6.00;;
313;SDS011;143;51.634;7.112;2022-08-19T00:30:58;8.73;;;5.70;;
313;SDS011;143;51.634;7.112;2022-08-19T00:33:24;7.50;;;6.10;;
313;SDS011;143;51.634;7.112;2022-08-19T00:35:50;9.17;;;6.87;;
313;SDS011;143;51.634;7.112;2022-08-19T00:38:16;12.00;;;6.33;;
313;SDS011;143;51.634;7.112;2022-08-19T00:40:42;10.77;;;6.30;;
313;SDS011;143;51.634;7.112;2022-08-19T00:43:11;10.63;;;6.83;;
313;SDS011;143;51.634;7.112;2022-08-19T00:45:40;6.83;;;6.27;;
313;SDS011;143;51.634;7.112;2022-08-19T00:48:08;9.53;;;6.67;;
313;SDS011;143;51.634;7.112;2022-08-19T00:50:34;11.30;;;6.60;;
313;SDS011;143;51.634;7.112;2022-08-19T00:53:01;9.90;;;6.80;;
313;SDS011;143;51.634;7.112;2022-08-19T00:55:29;10.03;;;6.17;;
313;SDS011;143;51.634;7.112;2022-08-19T00:58:00;8.90;;;6.00;;
313;SDS011;143;51.634;7.112;2022-08-19T01:00:29;8.27;;;6.43;;
313;SDS011;143;51.634;7.112;2022-08-19T01:02:57;10.73;;;6.33;;
313;SDS011;143;51.634;7.112;2022-08-19T01:05:25;9.20;;;5.87;;
313;SDS011;143;51.634;7.112;2022-08-19T01:07:53;8.20;;;5.90;;
313;SDS011;143;51.634;7.112;2022-08-19T01:10:22;8.73;;;6.60;;
313;SDS011;143;51.634;7.112;2022-08-19T01:12:51;9.27;;;6.40;;
313;SDS011;143;51.634;7.112;2022-08-19T01:15:19;6.97;;;6.20;;
313;SDS011;143;51.634;7.112;2022-08-19T01:17:47;9.03;;;7.00;;
313;SDS011;143;51.634;7.112;2022-08-19T01:20:15;11.80;;;7.10;;
313;SDS011;143;51.634;7.112;2022-08-19T01:22:45;10.63;;;6.67;;
313;SDS011;143;51.634;7.112;2022-08-19T01:25:16;8.67;;;6.43;;
313;SDS011;143;51.634;7.112;2022-08-19T01:27:46;14.87;;;6.90;;
313;SDS011;143;51.634;7.112;2022-08-19T01:30:15;9.47;;;6.30;;
313;SDS011;143;51.634;7.112;2022-08-19T01:32:44;9.23;;;6.57;;
313;SDS011;143;51.634;7.112;2022-08-19T01:35:11;12.83;;;6.47;;
313;SDS011;143;51.634;7.112;2022-08-19T01:37:56;7.90;;;6.80;;
313;SDS011;143;51.634;7.112;2022-08-19T01:40:31;9.60;;;6.33;;
313;SDS011;143;51.634;7.112;2022-08-19T01:42:58;9.30;;;6.47;;
313;SDS011;143;51.634;7.112;2022-08-19T01:45:26;12.77;;;7.07;;
313;SDS011;143;51.634;7.112;2022-08-19T01:47:53;14.13;;;5.80;;
313;SDS011;143;51.634;7.112;2022-08-19T01:50:19;10.00;;;7.30;;
313;SDS011;143;51.634;7.112;2022-08-19T01:52:46;10.60;;;8.40;;
313;SDS011;143;51.634;7.112;2022-08-19T01:55:20;10.90;;;8.00;;
313;SDS011;143;51.634;7.112;2022-08-19T01:57:50;18.23;;;8.20;;
313;SDS011;143;51.634;7.112;2022-08-19T02:00:20;9.57;;;7.40;;
313;SDS011;143;51.634;7.112;2022-08-19T02:02:47;9.87;;;7.33;;
313;SDS011;143;51.634;7.112;2022-08-19T02:05:13;9.77;;;7.03;;
313;SDS011;143;51.634;7.112;2022-08-19T02:07:42;12.20;;;7.53;;
313;SDS011;143;51.634;7.112;2022-08-19T02:10:14;10.30;;;7.30;;
313;SDS011;143;51.634;7.112;2022-08-19T02:12:43;9.33;;;6.70;;
313;SDS011;143;51.634;7.112;2022-08-19T02:15:09;10.33;;;7.30;;
313;SDS011;143;51.634;7.112;2022-08-19T02:17:35;9.27;;;6.63;;
313;SDS011;143;51.634;7.112;2022-08-19T02:20:01;11.13;;;7.80;;
313;SDS011;143;51.634;7.112;2022-08-19T02:22:27;9.20;;;7.27;;
313;SDS011;143;51.634;7.112;2022-08-19T02:24:53;12.23;;;6.83;;
313;SDS011;143;51.634;7.112;2022-08-19T02:27:19;11.77;;;7.37;;
313;SDS011;143;51.634;7.112;2022-08-19T02:29:46;9.90;;;7.37;;
313;SDS011;143;51.634;7.112;2022-08-19T02:32:13;12.63;;;8.80;;
313;SDS011;143;51.634;7.112;2022-08-19T02:34:39;16.53;;;9.40;;
313;SDS011;143;51.634;7.112;2022-08-19T02:37:05;10.93;;;8.37;;
313;SDS011;143;51.634;7.112;2022-08-19T02:39:51;10.30;;;7.60;;
313;SDS011;143;51.634;7.112;2022-08-19T02:42:17;10.50;;;7.83;;
313;SDS011;143;51.634;7.112;2022-08-19T02:44:43;12.47;;;8.10;;
313;SDS011;143;51.634;7.112;2022-08-19T02:47:09;11.40;;;7.50;;
313;SDS011;143;51.634;7.112;2022-08-19T02:49:35;12.83;;;6.70;;
313;SDS011;143;51.634;7.112;2022-08-19T02:52:02;10.83;;;7.60;;
313;SDS011;143;51.634;7.112;2022-08-19T02:54:28;13.77;;;7.10;;
313;SDS011;143;51.634;7.112;2022-08-19T02:56:53;11.60;;;7.90;;
313;SDS011;143;51.634;7.112;2022-08-19T02:59:19;9.23;;;6.40;;
313;SDS011;143;51.634;7.112;2022-08-19T03:01:46;10.23;;;7.30;;
313;SDS011;143;51.634;7.112;2022-08-19T03:04:13;11.57;;;8.20;;
313;SDS011;143;51.634;7.112;2022-08-19T03:06:42;8.93;;;7.10;;
313;SDS011;143;51.634;7.112;2022-08-19T03:09:10;18.37;;;7.83;;
313;SDS011;143;51.634;7.112;2022-08-19T03:11:37;10.90;;;7.30;;
313;SDS011;143;51.634;7.112;2022-08-19T03:14:03;11.93;;;8.60;;
313;SDS011;143;51.634;7.112;2022-08-19T03:16:32;9.97;;;7.90;;
313;SDS011;143;51.634;7.112;2022-08-19T03:19:00;10.57;;;7.70;;
313;SDS011;143;51.634;7.112;2022-08-19T03:21:27;9.97;;;7.63;;
313;SDS011;143;51.634;7.112;2022-08-19T03:23:55;23.93;;;9.10;;
313;SDS011;143;51.634;7.112;2022-08-19T03:26:23;12.40;;;8.37;;
313;SDS011;143;51.634;7.112;2022-08-19T03:28:49;11.50;;;8.33;;
313;SDS011;143;51.634;7.112;2022-08-19T03:31:15;12.30;;;8.20;;
313;SDS011;143;51.634;7.112;2022-08-19T03:33:44;11.70;;;7.50;;
313;SDS011;143;51.634;7.112;2022-08-19T03:36:11;11.23;;;8.13;;
313;SDS011;143;51.634;7.112;2022-08-19T03:38:46;12.03;;;8.57;;
313;SDS011;143;51.634;7.112;2022-08-19T03:41:18;11.43;;;8.53;;
313;SDS011;143;51.634;7.112;2022-08-19T03:43:48;11.73;;;8.33;;
313;SDS011;143;51.634;7.112;2022-08-19T03:46:15;13.23;;;8.83;;
313;SDS011;143;51.634;7.112;2022-08-19T03:48:51;11.23;;;8.00;;
313;SDS011;143;51.634;7.112;2022-08-19T03:51:25;10.97;;;8.33;;
313;SDS011;143;51.634;7.112;2022-08-19T03:53:56;14.20;;;8.90;;
313;SDS011;143;51.634;7.112;2022-08-19T03:56:23;11.27;;;8.03;;
313;SDS011;143;51.634;7.112;2022-08-19T03:58:53;12.83;;;7.47;;
313;SDS011;143;51.634;7.112;2022-08-19T04:01:21;12.13;;;8.13;;
313;SDS011;143;51.634;7.112;2022-08-19T04:03:48;15.87;;;10.80;;
313;SDS011;143;51.634;7.112;2022-08-19T04:08:41;11.03;;;8.33;;
313;SDS011;143;51.634;7.112;2022-08-19T04:11:12;9.70;;;7.10;;
313;SDS011;143;51.634;7.112;2022-08-19T04:13:39;14.20;;;8.00;;
313;SDS011;143;51.634;7.112;2022-08-19T04:16:07;13.77;;;9.80;;
313;SDS011;143;51.634;7.112;2022-08-19T04:18:35;12.50;;;8.37;;
313;SDS011;143;51.634;7.112;2022-08-19T04:21:02;10.97;;;6.43;;
313;SDS011;143;51.634;7.112;2022-08-19T04:23:28;11.00;;;7.23;;
313;SDS011;143;51.634;7.112;2022-08-19T04:25:54;13.83;;;9.37;;
313;SDS011;143;51.634;7.112;2022-08-19T04:28:21;14.93;;;8.80;;
313;SDS011;143;51.634;7.112;2022-08-19T04:30:49;13.47;;;8.93;;
313;SDS011;143;51.634;7.112;2022-08-19T04:33:17;13.73;;;9.00;;
313;SDS011;143;51.634;7.112;2022-08-19T04:35:46;15.23;;;11.70;;
313;SDS011;143;51.634;7.112;2022-08-19T04:38:14;17.20;;;11.80;;
313;SDS011;143;51.634;7.112;2022-08-19T04:40:45;18.70;;;10.80;;
313;SDS011;143;51.634;7.112;2022-08-19T04:43:31;15.43;;;9.13;;
313;SDS011;143;51.634;7.112;2022-08-19T04:45:58;20.10;;;10.07;;
313;SDS011;143;51.634;7.112;2022-08-19T04:48:28;12.33;;;8.03;;
313;SDS011;143;51.634;7.112;2022-08-19T04:50:55;12.93;;;8.23;;
313;SDS011;143;51.634;7.112;2022-08-19T04:53:29;15.73;;;9.50;;
313;SDS011;143;51.634;7.112;2022-08-19T04:55:57;11.77;;;8.33;;
313;SDS011;143;51.634;7.112;2022-08-19T04:58:24;13.90;;;8.60;;
313;SDS011;143;51.634;7.112;2022-08-19T05:00:51;11.40;;;7.70;;
313;SDS011;143;51.634;7.112;2022-08-19T05:03:17;15.40;;;7.90;;
313;SDS011;143;51.634;7.112;2022-08-19T05:05:44;15.47;;;8.73;;
313;SDS011;143;51.634;7.112;2022-08-19T05:08:14;16.50;;;9.00;;
313;SDS011;143;51.634;7.112;2022-08-19T05:10:46;15.57;;;9.30;;
313;SDS011;143;51.634;7.112;2022-08-19T05:13:13;23.63;;;10.00;;
313;SDS011;143;51.634;7.112;2022-08-19T05:15:40;14.70;;;10.70;;
313;SDS011;143;51.634;7.112;2022-08-19T05:18:06;18.50;;;9.97;;
313;SDS011;143;51.634;7.112;2022-08-19T05:20:50;18.07;;;11.50;;
313;SDS011;143;51.634;7.112;2022-08-19T05:23:34;16.83;;;10.37;;
313;SDS011;143;51.634;7.112;2022-08-19T05:26:00;13.83;;;9.90;;
313;SDS011;143;51.634;7.112;2022-08-19T05:28:26;17.33;;;10.23;;
313;SDS011;143;51.634;7.112;2022-08-19T05:30:52;17.33;;;11.43;;
313;SDS011;143;51.634;7.112;2022-08-19T05:33:20;16.57;;;11.50;;
313;SDS011;143;51.634;7.112;2022-08-19T05:35:46;25.20;;;14.27;;
313;SDS011;143;51.634;7.112;2022-08-19T05:38:13;18.53;;;12.23;;
313;SDS011;143;51.634;7.112;2022-08-19T05:40:39;20.60;;;12.70;;
313;SDS011;143;51.634;7.112;2022-08-19T05:43:05;21.83;;;13.87;;
313;SDS011;143;51.634;7.112;2022-08-19T05:45:32;22.93;;;14.63;;
313;SDS011;143;51.634;7.112;2022-08-19T05:48:02;26.33;;;14.60;;
313;SDS011;143;51.634;7.112;2022-08-19T05:50:28;22.23;;;14.00;;
313;SDS011;143;51.634;7.112;2022-08-19T05:52:54;24.93;;;15.13;;
313;SDS011;143;51.634;7.112;2022-08-19T05:55:20;26.60;;;15.63;;
313;SDS011;143;51.634;7.112;2022-08-19T05:57:46;27.93;;;16.17;;
313;SDS011;143;51.634;7.112;2022-08-19T06:00:12;22.60;;;14.87;;
313;SDS011;143;51.634;7.112;2022-08-19T06:02:38;29.97;;;16.40;;
313;SDS011;143;51.634;7.112;2022-08-19T06:05:05;26.10;;;15.70;;
313;SDS011;143;51.634;7.112;2022-08-19T06:07:34;23.70;;;13.50;;
313;SDS011;143;51.634;7.112;2022-08-19T06:10:00;19.97;;;14.67;;
313;SDS011;143;51.634;7.112;2022-08-19T06:12:28;26.70;;;17.37;;
313;SDS011;143;51.634;7.112;2022-08-19T06:14:59;24.97;;;16.20;;
313;SDS011;143;51.634;7.112;2022-08-19T06:17:26;24.87;;;17.07;;
313;SDS011;143;51.634;7.112;2022-08-19T06:19:54;33.50;;;18.37;;
313;SDS011;143;51.634;7.112;2022-08-19T06:22:21;26.83;;;17.60;;
313;SDS011;143;51.634;7.112;2022-08-19T06:24:46;27.10;;;16.63;;
313;SDS011;143;51.634;7.112;2022-08-19T06:27:12;22.67;;;16.43;;
313;SDS011;143;51.634;7.112;2022-08-19T06:29:38;28.43;;;17.90;;
313;SDS011;143;51.634;7.112;2022-08-19T06:32:04;32.10;;;20.73;;
313;SDS011;143;51.634;7.112;2022-08-19T06:34:31;28.77;;;17.40;;
313;SDS011;143;51.634;7.112;2022-08-19T06:36:59;43.90;;;21.10;;
313;SDS011;143;51.634;7.112;2022-08-19T06:39:27;27.97;;;18.90;;
313;SDS011;143;51.634;7.112;2022-08-19T06:41:59;31.70;;;18.53;;
313;SDS011;143;51.634;7.112;2022-08-19T06:44:28;28.83;;;17.63;;
313;SDS011;143;51.634;7.112;2022-08-19T06:46:59;30.30;;;18.97;;
313;SDS011;143;51.634;7.112;2022-08-19T06:49:27;31.73;;;18.70;;
313;SDS011;143;51.634;7.112;2022-08-19T06:51:56;31.07;;;19.93;;
313;SDS011;143;51.634;7.112;2022-08-19T06:54:23;33.27;;;20.10;;
313;SDS011;143;51.634;7.112;2022-08-19T06:56:50;44.77;;;20.33;;
313;SDS011;143;51.634;7.112;2022-08-19T06:59:18;38.70;;;19.40;;
313;SDS011;143;51.634;7.112;2022-08-19T07:01:46;31.93;;;19.27;;
313;SDS011;143;51.634;7.112;2022-08-19T07:04:16;32.53;;;19.27;;
313;SDS011;143;51.634;7.112;2022-08-19T07:06:44;32.73;;;18.17;;
313;SDS011;143;51.634;7.112;2022-08-19T07:09:12;38.57;;;20.03;;
313;SDS011;143;51.634;7.112;2022-08-19T07:11:50;31.27;;;17.57;;
313;SDS011;143;51.634;7.112;2022-08-19T07:14:19;28.57;;;17.20;;
313;SDS011;143;51.634;7.112;2022-08-19T07:16:49;22.10;;;14.43;;
313;SDS011;143;51.634;7.112;2022-08-19T07:19:17;22.83;;;13.83;;
313;SDS011;143;51.634;7.112;2022-08-19T07:21:43;22.60;;;14.23;;
313;SDS011;143;51.634;7.112;2022-08-19T07:24:11;16.20;;;11.27;;
313;SDS011;143;51.634;7.112;2022-08-19T07:26:38;18.80;;;11.80;;
313;SDS011;143;51.634;7.112;2022-08-19T07:29:05;15.50;;;10.10;;
313;SDS011;143;51.634;7.112;2022-08-19T07:31:31;18.77;;;11.50;;
313;SDS011;143;51.634;7.112;2022-08-19T07:34:02;16.10;;;10.30;;
313;SDS011;143;51.634;7.112;2022-08-19T07:36:32;20.90;;;13.00;;
313;SDS011;143;51.634;7.112;2022-08-19T07:39:00;19.67;;;11.83;;
313;SDS011;143;51.634;7.112;2022-08-19T07:41:29;21.03;;;13.40;;
313;SDS011;143;51.634;7.112;2022-08-19T07:43:56;21.87;;;13.60;;
313;SDS011;143;51.634;7.112;2022-08-19T07:46:28;15.47;;;10.67;;
313;SDS011;143;51.634;7.112;2022-08-19T07:48:58;20.03;;;10.20;;
313;SDS011;143;51.634;7.112;2022-08-19T07:51:25;20.50;;;12.80;;
313;SDS011;143;51.634;7.112;2022-08-19T07:53:52;17.50;;;10.00;;
313;SDS011;143;51.634;7.112;2022-08-19T07:56:18;16.73;;;10.67;;
313;SDS011;143;51.634;7.112;2022-08-19T07:58:46;19.73;;;11.20;;
313;SDS011;143;51.634;7.112;2022-08-19T08:01:15;20.30;;;11.60;;
313;SDS011;143;51.634;7.112;2022-08-19T08:03:43;20.63;;;11.50;;
313;SDS011;143;51.634;7.112;2022-08-19T08:06:28;17.93;;;11.53;;
313;SDS011;143;51.634;7.112;2022-08-19T08:09:13;18.50;;;11.77;;
313;SDS011;143;51.634;7.112;2022-08-19T08:11:55;17.60;;;10.87;;
313;SDS011;143;51.634;7.112;2022-08-19T08:14:25;17.27;;;11.00;;
313;SDS011;143;51.634;7.112;2022-08-19T08:16:53;18.27;;;12.63;;
313;SDS011;143;51.634;7.112;2022-08-19T08:19:20;19.50;;;10.77;;
313;SDS011;143;51.634;7.112;2022-08-19T08:21:47;12.80;;;8.40;;
313;SDS011;143;51.634;7.112;2022-08-19T08:24:14;15.10;;;10.53;;
313;SDS011;143;51.634;7.112;2022-08-19T08:26:40;19.67;;;12.30;;
313;SDS011;143;51.634;7.112;2022-08-19T08:29:07;18.57;;;10.90;;
313;SDS011;143;51.634;7.112;2022-08-19T08:31:37;15.40;;;10.27;;
313;SDS011;143;51.634;7.112;2022-08-19T08:34:07;24.03;;;13.77;;
313;SDS011;143;51.634;7.112;2022-08-19T08:36:42;23.10;;;13.27;;
313;SDS011;143;51.634;7.112;2022-08-19T08:39:11;21.50;;;13.97;;
313;SDS011;143;51.634;7.112;2022-08-19T08:41:41;16.90;;;12.07;;
313;SDS011;143;51.634;7.112;2022-08-19T08:44:16;24.33;;;14.40;;
313;SDS011;143;51.634;7.112;2022-08-19T08:46:53;18.43;;;11.87;;
313;SDS011;143;51.634;7.112;2022-08-19T08:52:06;16.33;;;11.40;;
313;SDS011;143;51.634;7.112;2022-08-19T08:54:41;23.63;;;12.40;;
313;SDS011;143;51.634;7.112;2022-08-19T08:57:32;18.90;;;12.90;;
313;SDS011;143;51.634;7.112;2022-08-19T09:00:19;22.03;;;13.33;;
313;SDS011;143;51.634;7.112;2022-08-19T09:02:49;14.50;;;11.33;;
313;SDS011;143;51.634;7.112;2022-08-19T09:05:15;17.53;;;11.93;;
313;SDS011;143;51.634;7.112;2022-08-19T09:07:57;24.07;;;15.67;;
313;SDS011;143;51.634;7.112;2022-08-19T09:10:38;18.90;;;13.90;;
313;SDS011;143;51.634;7.112;2022-08-19T09:15:42;25.17;;;15.93;;
313;SDS011;143;51.634;7.112;2022-08-19T09:18:13;29.27;;;14.50;;
313;SDS011;143;51.634;7.112;2022-08-19T09:20:41;20.17;;;12.77;;
313;SDS011;143;51.634;7.112;2022-08-19T09:23:07;24.90;;;15.07;;
313;SDS011;143;51.634;7.112;2022-08-19T09:25:34;21.33;;;12.87;;
313;SDS011;143;51.634;7.112;2022-08-19T09:27:59;21.40;;;14.43;;
313;SDS011;143;51.634;7.112;2022-08-19T09:30:32;22.10;;;14.87;;
313;SDS011;143;51.634;7.112;2022-08-19T09:33:04;28.13;;;15.33;;
313;SDS011;143;51.634;7.112;2022-08-19T09:35:30;25.00;;;16.23;;
313;SDS011;143;51.634;7.112;2022-08-19T09:37:56;25.50;;;15.60;;
313;SDS011;143;51.634;7.112;2022-08-19T09:40:23;20.93;;;14.30;;
313;SDS011;143;51.634;7.112;2022-08-19T09:42:49;23.50;;;14.40;;
313;SDS011;143;51.634;7.112;2022-08-19T09:45:16;25.03;;;15.60;;
313;SDS011;143;51.634;7.112;2022-08-19T09:47:45;28.00;;;17.10;;
313;SDS011;143;51.634;7.112;2022-08-19T09:50:11;26.90;;;15.40;;
313;SDS011;143;51.634;7.112;2022-08-19T09:52:38;20.50;;;15.17;;
313;SDS011;143;51.634;7.112;2022-08-19T09:55:04;19.37;;;13.10;;
313;SDS011;143;51.634;7.112;2022-08-19T09:57:32;22.20;;;14.27;;
313;SDS011;143;51.634;7.112;2022-08-19T09:59:58;19.27;;;13.00;;
313;SDS011;143;51.634;7.112;2022-08-19T10:02:23;22.27;;;13.80;;
313;SDS011;143;51.634;7.112;2022-08-19T10:04:49;17.50;;;13.17;;
313;SDS011;143;51.634;7.112;2022-08-19T10:07:34;25.27;;;14.27;;
313;SDS011;143;51.634;7.112;2022-08-19T10:10:01;19.00;;;13.03;;
313;SDS011;143;51.634;7.112;2022-08-19T10:12:28;21.17;;;11.40;;
313;SDS011;143;51.634;7.112;2022-08-19T10:14:55;17.77;;;9.80;;
313;SDS011;143;51.634;7.112;2022-08-19T10:17:20;13.57;;;10.33;;
313;SDS011;143;51.634;7.112;2022-08-19T10:19:46;10.07;;;7.90;;
313;SDS011;143;51.634;7.112;2022-08-19T10:22:13;14.07;;;9.37;;
313;SDS011;143;51.634;7.112;2022-08-19T10:24:39;13.07;;;8.33;;
313;SDS011;143;51.634;7.112;2022-08-19T10:27:06;18.23;;;9.73;;
313;SDS011;143;51.634;7.112;2022-08-19T10:29:32;22.23;;;13.07;;
313;SDS011;143;51.634;7.112;2022-08-19T10:32:00;18.40;;;10.70;;
313;SDS011;143;51.634;7.112;2022-08-19T10:34:28;19.90;;;12.87;;
313;SDS011;143;51.634;7.112;2022-08-19T10:36:55;13.47;;;10.00;;
313;SDS011;143;51.634;7.112;2022-08-19T10:39:21;21.53;;;12.10;;
313;SDS011;143;51.634;7.112;2022-08-19T10:41:47;17.53;;;12.83;;
313;SDS011;143;51.634;7.112;2022-08-19T10:44:13;20.53;;;14.80;;
313;SDS011;143;51.634;7.112;2022-08-19T10:46:41;16.30;;;10.63;;
313;SDS011;143;51.634;7.112;2022-08-19T10:49:10;16.23;;;10.30;;
313;SDS011;143;51.634;7.112;2022-08-19T10:51:37;14.90;;;10.53;;
313;SDS011;143;51.634;7.112;2022-08-19T10:54:22;16.10;;;10.50;;
313;SDS011;143;51.634;7.112;2022-08-19T10:56:48;14.97;;;11.60;;
313;SDS011;143;51.634;7.112;2022-08-19T10:59:26;22.23;;;10.60;;
313;SDS011;143;51.634;7.112;2022-08-19T11:01:57;19.30;;;10.07;;
313;SDS011;143;51.634;7.112;2022-08-19T11:04:25;15.90;;;11.10;;
313;SDS011;143;51.634;7.112;2022-08-19T11:06:51;21.40;;;11.93;;
313;SDS011;143;51.634;7.112;2022-08-19T11:09:18;22.00;;;13.30;;
313;SDS011;143;51.634;7.112;2022-08-19T11:11:54;18.87;;;12.00;;
313;SDS011;143;51.634;7.112;2022-08-19T11:14:22;17.73;;;11.60;;
313;SDS011;143;51.634;7.112;2022-08-19T11:16:50;22.20;;;12.40;;
313;SDS011;143;51.634;7.112;2022-08-19T11:19:21;22.77;;;12.67;;
313;SDS011;143;51.634;7.112;2022-08-19T11:21:49;23.50;;;14.20;;
313;SDS011;143;51.634;7.112;2022-08-19T11:24:20;20.70;;;13.50;;
313;SDS011;143;51.634;7.112;2022-08-19T11:26:48;16.90;;;11.50;;
313;SDS011;143;51.634;7.112;2022-08-19T11:29:15;28.67;;;16.10;;
313;SDS011;143;51.634;7.112;2022-08-19T11:31:45;18.47;;;12.17;;
313;SDS011;143;51.634;7.112;2022-08-19T11:34:14;26.80;;;15.10;;
313;SDS011;143;51.634;7.112;2022-08-19T11:36:43;21.07;;;12.50;;
313;SDS011;143;51.634;7.112;2022-08-19T11:39:10;21.70;;;13.50;;
313;SDS011;143;51.634;7.112;2022-08-19T11:41:38;18.53;;;12.13;;
313;SDS011;143;51.634;7.112;2022-08-19T11:44:04;21.23;;;13.63;;
313;SDS011;143;51.634;7.112;2022-08-19T11:46:33;16.97;;;12.83;;
313;SDS011;143;51.634;7.112;2022-08-19T11:49:02;18.80;;;12.80;;
313;SDS011;143;51.634;7.112;2022-08-19T11:51:30;18.47;;;12.20;;
313;SDS011;143;51.634;7.112;2022-08-19T11:53:57;15.47;;;12.10;;
313;SDS011;143;51.634;7.112;2022-08-19T11:56:24;16.53;;;11.60;;
313;SDS011;143;51.634;7.112;2022-08-19T11:58:51;16.33;;;11.20;;
313;SDS011;143;51.634;7.112;2022-08-19T12:01:18;26.13;;;10.47;;
313;SDS011;143;51.634;7.112;2022-08-19T12:03:46;15.10;;;9.27;;
313;SDS011;143;51.634;7.112;2022-08-19T12:06:14;15.60;;;10.10;;
313;SDS011;143;51.634;7.112;2022-08-19T12:08:44;15.67;;;11.37;;
313;SDS011;143;51.634;7.112;2022-08-19T12:11:11;26.67;;;12.57;;
313;SDS011;143;51.634;7.112;2022-08-19T12:13:38;16.17;;;10.57;;
313;SDS011;143;51.634;7.112;2022-08-19T12:16:10;13.97;;;9.70;;
313;SDS011;143;51.634;7.112;2022-08-19T12:18:39;17.80;;;12.67;;
313;SDS011;143;51.634;7.112;2022-08-19T12:21:08;17.50;;;12.23;;
313;SDS011;143;51.634;7.112;2022-08-19T12:23:36;14.57;;;11.13;;
313;SDS011;143;51.634;7.112;2022-08-19T12:26:02;15.13;;;10.43;;
313;SDS011;143;51.634;7.112;2022-08-19T12:28:28;18.70;;;13.67;;
313;SDS011;143;51.634;7.112;2022-08-19T12:30:55;17.77;;;13.63;;
313;SDS011;143;51.634;7.112;2022-08-19T12:33:21;14.00;;;10.33;;
313;SDS011;143;51.634;7.112;2022-08-19T12:35:49;15.60;;;9.13;;
313;SDS011;143;51.634;7.112;2022-08-19T12:38:16;15.67;;;9.00;;
313;SDS011;143;51.634;7.112;2022-08-19T12:40:45;14.37;;;9.30;;
313;SDS011;143;51.634;7.112;2022-08-19T12:43:11;19.07;;;11.77;;
313;SDS011;143;51.634;7.112;2022-08-19T12:45:38;15.80;;;11.73;;
313;SDS011;143;51.634;7.112;2022-08-19T12:48:04;17.83;;;11.00;;
313;SDS011;143;51.634;7.112;2022-08-19T12:50:30;13.60;;;9.57;;
313;SDS011;143;51.634;7.112;2022-08-19T12:52:56;15.83;;;10.50;;
313;SDS011;143;51.634;7.112;2022-08-19T12:55:23;12.13;;;9.50;;
313;SDS011;143;51.634;7.112;2022-08-19T12:57:49;8.27;;;6.77;;
313;SDS011;143;51.634;7.112;2022-08-19T13:00:16;10.53;;;8.00;;
313;SDS011;143;51.634;7.112;2022-08-19T13:02:46;11.87;;;8.83;;
313;SDS011;143;51.634;7.112;2022-08-19T13:05:18;12.43;;;9.17;;
313;SDS011;143;51.634;7.112;2022-08-19T13:07:47;12.43;;;7.63;;
313;SDS011;143;51.634;7.112;2022-08-19T13:10:14;9.67;;;7.50;;
313;SDS011;143;51.634;7.112;2022-08-19T13:12:42;12.63;;;6.47;;
313;SDS011;143;51.634;7.112;2022-08-19T13:15:09;6.83;;;5.60;;
313;SDS011;143;51.634;7.112;2022-08-19T13:17:35;10.70;;;6.33;;
313;SDS011;143;51.634;7.112;2022-08-19T13:20:02;12.40;;;7.40;;
313;SDS011;143;51.634;7.112;2022-08-19T13:22:29;8.97;;;5.50;;
313;SDS011;143;51.634;7.112;2022-08-19T13:24:56;5.90;;;5.27;;
313;SDS011;143;51.634;7.112;2022-08-19T13:27:22;6.07;;;4.77;;
313;SDS011;143;51.634;7.112;2022-08-19T13:29:47;10.87;;;6.73;;
313;SDS011;143;51.634;7.112;2022-08-19T13:32:32;7.30;;;5.27;;
313;SDS011;143;51.634;7.112;2022-08-19T13:35:16;6.50;;;5.17;;
313;SDS011;143;51.634;7.112;2022-08-19T13:37:42;5.87;;;4.67;;
313;SDS011;143;51.634;7.112;2022-08-19T13:40:10;8.70;;;5.50;;
313;SDS011;143;51.634;7.112;2022-08-19T13:42:44;14.90;;;4.90;;
313;SDS011;143;51.634;7.112;2022-08-19T13:45:12;8.87;;;5.03;;
313;SDS011;143;51.634;7.112;2022-08-19T13:47:40;7.57;;;4.50;;
313;SDS011;143;51.634;7.112;2022-08-19T13:50:15;8.00;;;5.10;;
313;SDS011;143;51.634;7.112;2022-08-19T13:52:43;6.57;;;4.37;;
313;SDS011;143;51.634;7.112;2022-08-19T13:55:09;9.83;;;5.13;;
313;SDS011;143;51.634;7.112;2022-08-19T13:57:36;6.53;;;4.37;;
313;SDS011;143;51.634;7.112;2022-08-19T14:00:09;7.43;;;4.13;;
313;SDS011;143;51.634;7.112;2022-08-19T14:02:39;6.77;;;4.30;;
313;SDS011;143;51.634;7.112;2022-08-19T14:05:06;12.33;;;5.00;;
313;SDS011;143;51.634;7.112;2022-08-19T14:07:35;7.03;;;4.20;;
313;SDS011;143;51.634;7.112;2022-08-19T14:10:01;5.17;;;3.80;;
313;SDS011;143;51.634;7.112;2022-08-19T14:12:29;8.10;;;4.63;;
313;SDS011;143;51.634;7.112;2022-08-19T14:14:56;8.60;;;5.30;;
313;SDS011;143;51.634;7.112;2022-08-19T14:17:22;7.13;;;4.20;;
313;SDS011;143;51.634;7.112;2022-08-19T14:19:48;7.33;;;4.00;;
313;SDS011;143;51.634;7.112;2022-08-19T14:22:14;9.70;;;3.80;;
313;SDS011;143;51.634;7.112;2022-08-19T14:24:39;6.70;;;4.13;;
313;SDS011;143;51.634;7.112;2022-08-19T14:27:06;9.97;;;4.97;;
313;SDS011;143;51.634;7.112;2022-08-19T14:29:32;6.13;;;4.53;;
313;SDS011;143;51.634;7.112;2022-08-19T14:31:59;5.00;;;4.20;;
313;SDS011;143;51.634;7.112;2022-08-19T14:34:25;10.17;;;4.80;;
313;SDS011;143;51.634;7.112;2022-08-19T14:36:51;12.83;;;5.33;;
313;SDS011;143;51.634;7.112;2022-08-19T14:39:18;6.17;;;4.10;;
313;SDS011;143;51.634;7.112;2022-08-19T14:41:44;9.50;;;4.80;;
313;SDS011;143;51.634;7.112;2022-08-19T14:44:10;9.33;;;5.23;;
313;SDS011;143;51.634;7.112;2022-08-19T14:46:37;11.80;;;6.00;;
313;SDS011;143;51.634;7.112;2022-08-19T14:49:04;8.33;;;6.50;;
313;SDS011;143;51.634;7.112;2022-08-19T14:51:30;10.23;;;6.43;;
313;SDS011;143;51.634;7.112;2022-08-19T14:53:56;10.43;;;6.27;;
313;SDS011;143;51.634;7.112;2022-08-19T14:56:23;10.97;;;7.13;;
313;SDS011;143;51.634;7.112;2022-08-19T14:58:51;12.50;;;6.90;;
313;SDS011;143;51.634;7.112;2022-08-19T15:01:17;9.00;;;7.33;;
313;SDS011;143;51.634;7.112;2022-08-19T15:03:47;10.23;;;7.17;;
313;SDS011;143;51.634;7.112;2022-08-19T15:06:14;8.40;;;7.37;;
313;SDS011;143;51.634;7.112;2022-08-19T15:08:41;12.30;;;7.70;;
313;SDS011;143;51.634;7.112;2022-08-19T15:11:13;14.07;;;8.17;;
313;SDS011;143;51.634;7.112;2022-08-19T15:13:41;12.57;;;8.47;;
313;SDS011;143;51.634;7.112;2022-08-19T15:16:07;9.53;;;7.70;;
313;SDS011;143;51.634;7.112;2022-08-19T15:18:33;12.73;;;7.53;;
313;SDS011;143;51.634;7.112;2022-08-19T15:21:00;13.53;;;7.80;;
313;SDS011;143;51.634;7.112;2022-08-19T15:23:27;10.50;;;7.23;;
313;SDS011;143;51.634;7.112;2022-08-19T15:25:52;13.40;;;7.60;;
313;SDS011;143;51.634;7.112;2022-08-19T15:28:20;9.90;;;7.03;;
313;SDS011;143;51.634;7.112;2022-08-19T15:30:46;8.00;;;6.90;;
313;SDS011;143;51.634;7.112;2022-08-19T15:33:12;9.83;;;6.80;;
313;SDS011;143;51.634;7.112;2022-08-19T15:35:45;12.93;;;6.67;;
313;SDS011;143;51.634;7.112;2022-08-19T15:38:12;10.03;;;6.83;;
313;SDS011;143;51.634;7.112;2022-08-19T15:40:38;10.30;;;6.77;;
313;SDS011;143;51.634;7.112;2022-08-19T15:43:06;11.40;;;8.10;;